sensor_id;sensor_type;location;lat;lon;timestamp;pressure;altitude;pressure_sealevel;temperature;humidity
68807;BME280;55800;54.272;18.558;2023-04-20T00:01:34;101692.00;;;8.88;64.48
68807;BME280;55800;54.272;18.558;2023-04-20T00:04:04;101686.56;;;8.94;65.44
68807;BME280;55800;54.272;18.558;2023-04-20T00:06:33;101690.06;;;8.96;65.07
68807;BME280;55800;54.272;18.558;2023-04-20T00:09:03;101682.97;;;8.95;66.24
68807;BME280;55800;54.272;18.558;2023-04-20T00:11:32;101676.81;;;8.92;66.06
68807;BME280;55800;54.272;18.558;2023-04-20T00:14:01;101678.63;;;8.90;64.99
68807;BME280;55800;54.272;18.558;2023-04-20T00:16:31;101683.03;;;8.91;66.06
68807;BME280;55800;54.272;18.558;2023-04-20T00:19:00;101682.19;;;8.90;64.99
68807;BME280;55800;54.272;18.558;2023-04-20T00:21:29;101681.28;;;8.90;65.82
68807;BME280;55800;54.272;18.558;2023-04-20T00:23:59;101678.63;;;8.90;65.91
68807;BME280;55800;54.272;18.558;2023-04-20T00:26:29;101684.84;;;8.90;65.85
68807;BME280;55800;54.272;18.558;2023-04-20T00:28:59;101676.94;;;8.86;66.29
68807;BME280;55800;54.272;18.558;2023-04-20T00:31:28;101672.47;;;8.86;65.74
68807;BME280;55800;54.272;18.558;2023-04-20T00:33:58;101683.13;;;8.88;66.08
68807;BME280;55800;54.272;18.558;2023-04-20T00:36:27;101691.06;;;8.89;66.13
68807;BME280;55800;54.272;18.558;2023-04-20T00:38:58;101680.38;;;8.92;65.88
68807;BME280;55800;54.272;18.558;2023-04-20T00:41:28;101680.41;;;8.89;65.70
68807;BME280;55800;54.272;18.558;2023-04-20T00:43:59;101674.34;;;8.81;66.32
68807;BME280;55800;54.272;18.558;2023-04-20T00:46:28;101678.00;;;8.76;66.28
68807;BME280;55800;54.272;18.558;2023-04-20T00:48:58;101678.00;;;8.74;65.60
68807;BME280;55800;54.272;18.558;2023-04-20T00:51:28;101670.97;;;8.70;66.10
68807;BME280;55800;54.272;18.558;2023-04-20T00:53:58;101678.09;;;8.71;65.70
68807;BME280;55800;54.272;18.558;2023-04-20T00:56:27;101677.97;;;8.77;65.48
68807;BME280;55800;54.272;18.558;2023-04-20T00:58:56;101665.69;;;8.69;64.89
68807;BME280;55800;54.272;18.558;2023-04-20T01:01:25;101665.69;;;8.69;66.42
68807;BME280;55800;54.272;18.558;2023-04-20T01:03:54;101663.06;;;8.67;65.89
68807;BME280;55800;54.272;18.558;2023-04-20T01:06:25;101668.47;;;8.62;64.93
68807;BME280;55800;54.272;18.558;2023-04-20T01:08:56;101666.75;;;8.57;64.97
68807;BME280;55800;54.272;18.558;2023-04-20T01:11:24;101670.38;;;8.53;65.16
68807;BME280;55800;54.272;18.558;2023-04-20T01:13:53;101661.53;;;8.52;66.57
68807;BME280;55800;54.272;18.558;2023-04-20T01:16:23;101661.47;;;8.55;65.33
68807;BME280;55800;54.272;18.558;2023-04-20T01:18:53;101656.94;;;8.59;64.67
68807;BME280;55800;54.272;18.558;2023-04-20T01:21:22;101664.19;;;8.51;65.87
68807;BME280;55800;54.272;18.558;2023-04-20T01:23:53;101652.56;;;8.56;65.10
68807;BME280;55800;54.272;18.558;2023-04-20T01:26:24;101653.53;;;8.51;64.62
68807;BME280;55800;54.272;18.558;2023-04-20T01:28:53;101658.97;;;8.45;65.05
68807;BME280;55800;54.272;18.558;2023-04-20T01:31:22;101658.94;;;8.48;65.35
68807;BME280;55800;54.272;18.558;2023-04-20T01:33:51;101657.19;;;8.45;65.15
68807;BME280;55800;54.272;18.558;2023-04-20T01:36:20;101650.94;;;8.46;65.68
68807;BME280;55800;54.272;18.558;2023-04-20T01:38:49;101657.25;;;8.44;65.04
68807;BME280;55800;54.272;18.558;2023-04-20T01:41:20;101647.53;;;8.38;64.62
68807;BME280;55800;54.272;18.558;2023-04-20T01:43:49;101646.66;;;8.38;65.39
68807;BME280;55800;54.272;18.558;2023-04-20T01:46:18;101649.44;;;8.30;64.97
68807;BME280;55800;54.272;18.558;2023-04-20T01:48:47;101649.50;;;8.27;64.50
68807;BME280;55800;54.272;18.558;2023-04-20T01:51:16;101650.38;;;8.28;64.73
68807;BME280;55800;54.272;18.558;2023-04-20T01:53:45;101643.31;;;8.27;64.31
68807;BME280;55800;54.272;18.558;2023-04-20T01:56:14;101646.91;;;8.23;65.44
68807;BME280;55800;54.272;18.558;2023-04-20T01:58:45;101642.47;;;8.22;64.91
68807;BME280;55800;54.272;18.558;2023-04-20T02:01:14;101646.00;;;8.22;64.72
68807;BME280;55800;54.272;18.558;2023-04-20T02:03:43;101644.38;;;8.14;65.62
68807;BME280;55800;54.272;18.558;2023-04-20T02:06:13;101650.59;;;8.13;64.55
68807;BME280;55800;54.272;18.558;2023-04-20T02:08:42;101655.97;;;8.10;64.79
68807;BME280;55800;54.272;18.558;2023-04-20T02:11:11;101649.69;;;8.14;64.98
68807;BME280;55800;54.272;18.558;2023-04-20T02:13:40;101653.16;;;8.20;64.45
68807;BME280;55800;54.272;18.558;2023-04-20T02:16:10;101653.06;;;8.26;63.90
68807;BME280;55800;54.272;18.558;2023-04-20T02:18:39;101660.16;;;8.27;63.85
68807;BME280;55800;54.272;18.558;2023-04-20T02:21:08;101662.13;;;8.13;64.16
68807;BME280;55800;54.272;18.558;2023-04-20T02:23:37;101657.81;;;8.05;64.55
68807;BME280;55800;54.272;18.558;2023-04-20T02:26:06;101650.78;;;8.01;64.66
68807;BME280;55800;54.272;18.558;2023-04-20T02:28:35;101652.59;;;7.99;64.53
68807;BME280;55800;54.272;18.558;2023-04-20T02:31:18;101657.06;;;7.97;64.25
68807;BME280;55800;54.272;18.558;2023-04-20T02:33:48;101647.28;;;7.96;64.90
68807;BME280;55800;54.272;18.558;2023-04-20T02:36:18;101658.03;;;7.89;64.39
68807;BME280;55800;54.272;18.558;2023-04-20T02:38:47;101655.44;;;7.86;64.79
68807;BME280;55800;54.272;18.558;2023-04-20T02:41:16;101655.47;;;7.83;64.63
68807;BME280;55800;54.272;18.558;2023-04-20T02:43:45;101665.25;;;7.81;64.47
68807;BME280;55800;54.272;18.558;2023-04-20T02:46:14;101662.63;;;7.78;64.17
68807;BME280;55800;54.272;18.558;2023-04-20T02:48:45;101660.06;;;7.74;64.00
68807;BME280;55800;54.272;18.558;2023-04-20T02:51:14;101654.78;;;7.68;64.86
68807;BME280;55800;54.272;18.558;2023-04-20T02:53:45;101661.91;;;7.67;64.74
68807;BME280;55800;54.272;18.558;2023-04-20T02:56:22;101669.00;;;7.67;64.14
68807;BME280;55800;54.272;18.558;2023-04-20T02:58:54;101664.63;;;7.61;64.84
68807;BME280;55800;54.272;18.558;2023-04-20T03:01:49;101671.75;;;7.61;64.20
68807;BME280;55800;54.272;18.558;2023-04-20T03:04:23;101667.38;;;7.55;64.85
68807;BME280;55800;54.272;18.558;2023-04-20T03:07:02;101669.94;;;7.61;64.79
68807;BME280;55800;54.272;18.558;2023-04-20T03:09:34;101673.56;;;7.57;64.90
68807;BME280;55800;54.272;18.558;2023-04-20T03:12:06;101670.84;;;7.62;65.42
68807;BME280;55800;54.272;18.558;2023-04-20T03:14:54;101676.22;;;7.57;64.50
68807;BME280;55800;54.272;18.558;2023-04-20T03:17:44;101680.75;;;7.49;65.76
68807;BME280;55800;54.272;18.558;2023-04-20T03:20:16;101673.75;;;7.44;65.65
68807;BME280;55800;54.272;18.558;2023-04-20T03:22:45;101678.22;;;7.42;64.72
68807;BME280;55800;54.272;18.558;2023-04-20T03:25:14;101678.25;;;7.37;65.63
68807;BME280;55800;54.272;18.558;2023-04-20T03:27:57;101680.09;;;7.34;65.78
68807;BME280;55800;54.272;18.558;2023-04-20T03:30:27;101682.78;;;7.31;66.28
68807;BME280;55800;54.272;18.558;2023-04-20T03:33:03;101674.78;;;7.34;64.79
68807;BME280;55800;54.272;18.558;2023-04-20T03:35:34;101683.66;;;7.31;64.96
68807;BME280;55800;54.272;18.558;2023-04-20T03:38:06;101682.81;;;7.29;65.84
68807;BME280;55800;54.272;18.558;2023-04-20T03:40:36;101677.47;;;7.28;64.75
68807;BME280;55800;54.272;18.558;2023-04-20T03:43:05;101676.63;;;7.24;65.03
68807;BME280;55800;54.272;18.558;2023-04-20T03:45:34;101674.88;;;7.23;64.80
68807;BME280;55800;54.272;18.558;2023-04-20T03:48:03;101682.88;;;7.22;65.64
68807;BME280;55800;54.272;18.558;2023-04-20T03:50:32;101676.69;;;7.20;65.08
68807;BME280;55800;54.272;18.558;2023-04-20T03:53:03;101684.63;;;7.24;66.32
68807;BME280;55800;54.272;18.558;2023-04-20T03:55:32;101675.78;;;7.22;65.49
68807;BME280;55800;54.272;18.558;2023-04-20T03:58:05;101684.66;;;7.23;65.27
68807;BME280;55800;54.272;18.558;2023-04-20T04:00:46;101692.56;;;7.29;64.95
68807;BME280;55800;54.272;18.558;2023-04-20T04:03:16;101687.38;;;7.17;65.94
68807;BME280;55800;54.272;18.558;2023-04-20T04:05:47;101690.94;;;7.14;66.99
68807;BME280;55800;54.272;18.558;2023-04-20T04:08:17;101689.16;;;7.16;65.42
68807;BME280;55800;54.272;18.558;2023-04-20T04:10:47;101689.91;;;7.26;66.85
68807;BME280;55800;54.272;18.558;2023-04-20T04:13:16;101694.31;;;7.28;65.69
68807;BME280;55800;54.272;18.558;2023-04-20T04:15:45;101696.03;;;7.35;66.60
68807;BME280;55800;54.272;18.558;2023-04-20T04:18:15;101692.38;;;7.42;67.25
68807;BME280;55800;54.272;18.558;2023-04-20T04:20:44;101699.50;;;7.40;66.10
68807;BME280;55800;54.272;18.558;2023-04-20T04:23:14;101690.66;;;7.38;65.87
68807;BME280;55800;54.272;18.558;2023-04-20T04:26:03;101703.88;;;7.46;65.96
68807;BME280;55800;54.272;18.558;2023-04-20T04:28:35;101706.38;;;7.58;66.33
68807;BME280;55800;54.272;18.558;2023-04-20T04:31:13;101708.09;;;7.63;66.21
68807;BME280;55800;54.272;18.558;2023-04-20T04:33:44;101711.66;;;7.62;65.47
68807;BME280;55800;54.272;18.558;2023-04-20T04:36:22;101704.56;;;7.61;67.40
68807;BME280;55800;54.272;18.558;2023-04-20T04:38:56;101704.41;;;7.73;66.38
68807;BME280;55800;54.272;18.558;2023-04-20T04:41:27;101708.84;;;7.73;67.04
68807;BME280;55800;54.272;18.558;2023-04-20T04:44:07;101718.44;;;7.86;67.29
68807;BME280;55800;54.272;18.558;2023-04-20T04:46:39;101710.44;;;7.87;67.74
68807;BME280;55800;54.272;18.558;2023-04-20T04:49:08;101720.13;;;7.92;66.89
68807;BME280;55800;54.272;18.558;2023-04-20T04:51:40;101713.88;;;7.96;66.25
68807;BME280;55800;54.272;18.558;2023-04-20T04:54:09;101712.06;;;7.98;66.90
68807;BME280;55800;54.272;18.558;2023-04-20T04:56:40;101713.81;;;8.00;66.72
68807;BME280;55800;54.272;18.558;2023-04-20T04:59:09;101716.41;;;8.05;66.59
68807;BME280;55800;54.272;18.558;2023-04-20T05:01:38;101714.50;;;8.13;66.59
68807;BME280;55800;54.272;18.558;2023-04-20T05:04:07;101726.84;;;8.20;66.12
68807;BME280;55800;54.272;18.558;2023-04-20T05:06:36;101729.44;;;8.26;66.31
68807;BME280;55800;54.272;18.558;2023-04-20T05:09:05;101729.41;;;8.29;66.37
68807;BME280;55800;54.272;18.558;2023-04-20T05:11:34;101732.00;;;8.35;66.21
68807;BME280;55800;54.272;18.558;2023-04-20T05:14:05;101736.28;;;8.43;66.85
68807;BME280;55800;54.272;18.558;2023-04-20T05:16:34;101730.88;;;8.49;66.40
68807;BME280;55800;54.272;18.558;2023-04-20T05:19:03;101729.81;;;8.59;66.83
68807;BME280;55800;54.272;18.558;2023-04-20T05:21:32;101727.03;;;8.65;66.34
68807;BME280;55800;54.272;18.558;2023-04-20T05:24:01;101723.41;;;8.71;66.45
68807;BME280;55800;54.272;18.558;2023-04-20T05:26:30;101725.00;;;8.81;66.84
68807;BME280;55800;54.272;18.558;2023-04-20T05:28:59;101720.41;;;8.89;66.54
68807;BME280;55800;54.272;18.558;2023-04-20T05:31:29;101730.13;;;8.93;66.40
68807;BME280;55800;54.272;18.558;2023-04-20T05:34:00;101734.41;;;9.03;66.65
68807;BME280;55800;54.272;18.558;2023-04-20T05:36:29;101734.28;;;9.08;66.06
68807;BME280;55800;54.272;18.558;2023-04-20T05:39:00;101728.69;;;9.24;66.31
68807;BME280;55800;54.272;18.558;2023-04-20T05:41:29;101727.66;;;9.30;66.21
68807;BME280;55800;54.272;18.558;2023-04-20T05:43:58;101730.25;;;9.34;66.27
68807;BME280;55800;54.272;18.558;2023-04-20T05:46:27;101746.19;;;9.37;66.22
68807;BME280;55800;54.272;18.558;2023-04-20T05:48:57;101750.47;;;9.46;66.13
68807;BME280;55800;54.272;18.558;2023-04-20T05:51:27;101737.88;;;9.54;66.25
68807;BME280;55800;54.272;18.558;2023-04-20T05:53:59;101742.97;;;9.66;66.57
68807;BME280;55800;54.272;18.558;2023-04-20T05:56:29;101748.94;;;9.79;65.97
68807;BME280;55800;54.272;18.558;2023-04-20T05:58:58;101752.28;;;9.90;65.78
68807;BME280;55800;54.272;18.558;2023-04-20T06:01:27;101747.63;;;9.98;65.70
68807;BME280;55800;54.272;18.558;2023-04-20T06:03:57;101743.94;;;10.05;65.80
68807;BME280;55800;54.272;18.558;2023-04-20T06:06:27;101747.38;;;10.11;65.60
68807;BME280;55800;54.272;18.558;2023-04-20T06:08:57;101746.31;;;10.18;65.75
68807;BME280;55800;54.272;18.558;2023-04-20T06:11:26;101755.88;;;10.29;65.52
68807;BME280;55800;54.272;18.558;2023-04-20T06:13:55;101761.13;;;10.33;65.21
68807;BME280;55800;54.272;18.558;2023-04-20T06:16:24;101759.25;;;10.38;65.25
68807;BME280;55800;54.272;18.558;2023-04-20T06:18:53;101764.63;;;10.35;65.61
68807;BME280;55800;54.272;18.558;2023-04-20T06:21:24;101772.53;;;10.41;65.70
68807;BME280;55800;54.272;18.558;2023-04-20T06:23:53;101770.56;;;10.49;65.58
68807;BME280;55800;54.272;18.558;2023-04-20T06:26:22;101777.41;;;10.62;65.38
68807;BME280;55800;54.272;18.558;2023-04-20T06:28:51;101778.03;;;10.72;64.79
68807;BME280;55800;54.272;18.558;2023-04-20T06:31:20;101767.19;;;10.78;64.91
68807;BME280;55800;54.272;18.558;2023-04-20T06:33:49;101775.91;;;10.86;65.00
68807;BME280;55800;54.272;18.558;2023-04-20T06:36:18;101770.41;;;10.92;65.00
68807;BME280;55800;54.272;18.558;2023-04-20T06:38:49;101770.25;;;10.98;65.11
68807;BME280;55800;54.272;18.558;2023-04-20T06:41:18;101774.50;;;11.07;64.73
68807;BME280;55800;54.272;18.558;2023-04-20T06:43:47;101778.75;;;11.14;65.02
68807;BME280;55800;54.272;18.558;2023-04-20T06:46:16;101772.28;;;11.24;64.95
68807;BME280;55800;54.272;18.558;2023-04-20T06:48:45;101776.47;;;11.34;64.50
68807;BME280;55800;54.272;18.558;2023-04-20T06:51:14;101779.03;;;11.38;64.25
68807;BME280;55800;54.272;18.558;2023-04-20T06:53:43;101778.72;;;11.49;64.03
68807;BME280;55800;54.272;18.558;2023-04-20T06:56:15;101781.41;;;11.49;63.98
68807;BME280;55800;54.272;18.558;2023-04-20T06:58:44;101784.81;;;11.54;64.30
68807;BME280;55800;54.272;18.558;2023-04-20T07:01:13;101782.00;;;11.60;63.98
68807;BME280;55800;54.272;18.558;2023-04-20T07:03:42;101784.50;;;11.66;63.11
68807;BME280;55800;54.272;18.558;2023-04-20T07:06:14;101789.63;;;11.75;64.12
68807;BME280;55800;54.272;18.558;2023-04-20T07:08:43;101793.06;;;11.80;64.19
68807;BME280;55800;54.272;18.558;2023-04-20T07:11:12;101794.53;;;11.92;63.79
68807;BME280;55800;54.272;18.558;2023-04-20T07:13:42;101794.41;;;11.95;63.52
68807;BME280;55800;54.272;18.558;2023-04-20T07:16:14;101800.47;;;12.01;63.70
68807;BME280;55800;54.272;18.558;2023-04-20T07:18:43;101799.41;;;12.07;63.73
68807;BME280;55800;54.272;18.558;2023-04-20T07:21:12;101798.25;;;12.15;64.05
68807;BME280;55800;54.272;18.558;2023-04-20T07:23:43;101803.56;;;12.18;63.19
68807;BME280;55800;54.272;18.558;2023-04-20T07:26:13;101799.97;;;12.19;62.87
68807;BME280;55800;54.272;18.558;2023-04-20T07:28:43;101795.25;;;12.26;62.38
68807;BME280;55800;54.272;18.558;2023-04-20T07:31:12;101797.81;;;12.30;61.91
68807;BME280;55800;54.272;18.558;2023-04-20T07:33:41;101797.59;;;12.38;62.79
68807;BME280;55800;54.272;18.558;2023-04-20T07:36:10;101803.78;;;12.40;62.05
68807;BME280;55800;54.272;18.558;2023-04-20T07:38:39;101811.59;;;12.47;62.49
68807;BME280;55800;54.272;18.558;2023-04-20T07:41:09;101815.06;;;12.51;63.26
68807;BME280;55800;54.272;18.558;2023-04-20T07:43:38;101815.72;;;12.57;62.74
68807;BME280;55800;54.272;18.558;2023-04-20T07:46:09;101813.78;;;12.63;62.64
68807;BME280;55800;54.272;18.558;2023-04-20T07:48:38;101816.28;;;12.69;62.31
68807;BME280;55800;54.272;18.558;2023-04-20T07:51:11;101813.38;;;12.76;61.84
68807;BME280;55800;54.272;18.558;2023-04-20T07:53:40;101816.81;;;12.80;61.76
68807;BME280;55800;54.272;18.558;2023-04-20T07:56:09;101819.44;;;12.81;62.10
68807;BME280;55800;54.272;18.558;2023-04-20T07:58:38;101823.03;;;12.82;61.23
68807;BME280;55800;54.272;18.558;2023-04-20T08:01:09;101822.94;;;12.85;61.37
68807;BME280;55800;54.272;18.558;2023-04-20T08:03:38;101818.28;;;12.90;62.60
68807;BME280;55800;54.272;18.558;2023-04-20T08:06:10;101827.84;;;12.98;62.50
68807;BME280;55800;54.272;18.558;2023-04-20T08:08:39;101825.88;;;13.05;62.49
68807;BME280;55800;54.272;18.558;2023-04-20T08:11:08;101828.66;;;13.00;61.90
68807;BME280;55800;54.272;18.558;2023-04-20T08:13:37;101830.53;;;12.98;61.63
68807;BME280;55800;54.272;18.558;2023-04-20T08:16:06;101835.00;;;12.99;61.88
68807;BME280;55800;54.272;18.558;2023-04-20T08:18:37;101827.66;;;13.06;60.35
68807;BME280;55800;54.272;18.558;2023-04-20T08:21:07;101828.66;;;13.02;61.61
68807;BME280;55800;54.272;18.558;2023-04-20T08:23:36;101825.78;;;13.08;60.02
68807;BME280;55800;54.272;18.558;2023-04-20T08:26:09;101825.47;;;13.17;61.88
68807;BME280;55800;54.272;18.558;2023-04-20T08:28:42;101830.75;;;13.20;60.46
68807;BME280;55800;54.272;18.558;2023-04-20T08:31:12;101837.22;;;13.14;59.63
68807;BME280;55800;54.272;18.558;2023-04-20T08:33:42;101833.38;;;13.21;60.91
68807;BME280;55800;54.272;18.558;2023-04-20T08:36:11;101832.59;;;13.18;59.60
68807;BME280;55800;54.272;18.558;2023-04-20T08:38:40;101834.53;;;13.13;59.60
68807;BME280;55800;54.272;18.558;2023-04-20T08:41:10;101834.47;;;13.16;59.13
68807;BME280;55800;54.272;18.558;2023-04-20T08:43:40;101826.50;;;13.13;59.48
68807;BME280;55800;54.272;18.558;2023-04-20T08:46:09;101824.53;;;13.18;60.75
68807;BME280;55800;54.272;18.558;2023-04-20T08:48:38;101830.94;;;13.14;60.87
68807;BME280;55800;54.272;18.558;2023-04-20T08:51:10;101831.78;;;13.16;59.68
68807;BME280;55800;54.272;18.558;2023-04-20T08:53:39;101827.03;;;13.24;59.28
68807;BME280;55800;54.272;18.558;2023-04-20T08:56:08;101825.28;;;13.23;60.38
68807;BME280;55800;54.272;18.558;2023-04-20T08:58:38;101827.84;;;13.26;59.51
68807;BME280;55800;54.272;18.558;2023-04-20T09:01:09;101842.84;;;13.33;60.56
68807;BME280;55800;54.272;18.558;2023-04-20T09:03:40;101846.56;;;13.29;61.28
68807;BME280;55800;54.272;18.558;2023-04-20T09:06:14;101835.91;;;13.26;60.74
68807;BME280;55800;54.272;18.558;2023-04-20T09:08:44;101837.59;;;13.28;60.51
68807;BME280;55800;54.272;18.558;2023-04-20T09:11:20;101844.47;;;13.37;61.12
68807;BME280;55800;54.272;18.558;2023-04-20T09:13:56;101832.63;;;13.43;60.67
68807;BME280;55800;54.272;18.558;2023-04-20T09:16:27;101845.91;;;13.47;61.33
68807;BME280;55800;54.272;18.558;2023-04-20T09:18:56;101842.09;;;13.54;61.03
68807;BME280;55800;54.272;18.558;2023-04-20T09:21:27;101837.16;;;13.67;60.53
68807;BME280;55800;54.272;18.558;2023-04-20T09:23:57;101845.91;;;13.73;60.43
68807;BME280;55800;54.272;18.558;2023-04-20T09:26:30;101849.13;;;13.83;60.43
68807;BME280;55800;54.272;18.558;2023-04-20T09:28:59;101848.03;;;13.88;59.42
68807;BME280;55800;54.272;18.558;2023-04-20T09:31:28;101846.03;;;13.93;59.89
68807;BME280;55800;54.272;18.558;2023-04-20T09:33:58;101855.50;;;14.05;60.66
68807;BME280;55800;54.272;18.558;2023-04-20T09:36:36;101838.38;;;14.07;58.91
68807;BME280;55800;54.272;18.558;2023-04-20T09:39:06;101843.69;;;14.09;59.41
68807;BME280;55800;54.272;18.558;2023-04-20T09:41:37;101851.69;;;14.10;58.65
68807;BME280;55800;54.272;18.558;2023-04-20T09:44:06;101854.50;;;14.07;58.59
68807;BME280;55800;54.272;18.558;2023-04-20T09:46:36;101853.47;;;14.12;58.38
68807;BME280;55800;54.272;18.558;2023-04-20T09:49:07;101854.38;;;14.10;59.39
68807;BME280;55800;54.272;18.558;2023-04-20T09:51:38;101851.53;;;14.15;58.09
68807;BME280;55800;54.272;18.558;2023-04-20T09:54:08;101857.72;;;14.17;58.92
68807;BME280;55800;54.272;18.558;2023-04-20T09:56:38;101852.19;;;14.22;59.80
68807;BME280;55800;54.272;18.558;2023-04-20T09:59:07;101853.75;;;14.29;59.32
68807;BME280;55800;54.272;18.558;2023-04-20T10:01:37;101846.50;;;14.31;59.74
68807;BME280;55800;54.272;18.558;2023-04-20T10:04:06;101849.06;;;14.34;59.28
68807;BME280;55800;54.272;18.558;2023-04-20T10:06:39;101854.03;;;14.44;59.00
68807;BME280;55800;54.272;18.558;2023-04-20T10:09:20;101848.53;;;14.47;58.04
68807;BME280;55800;54.272;18.558;2023-04-20T10:11:49;101850.09;;;14.53;58.54
68807;BME280;55800;54.272;18.558;2023-04-20T10:14:22;101844.03;;;14.48;56.08
68807;BME280;55800;54.272;18.558;2023-04-20T10:16:58;101848.66;;;14.44;56.54
68807;BME280;55800;54.272;18.558;2023-04-20T10:19:38;101842.69;;;14.59;58.20
68807;BME280;55800;54.272;18.558;2023-04-20T10:22:09;101844.25;;;14.65;58.82
68807;BME280;55800;54.272;18.558;2023-04-20T10:24:38;101850.22;;;14.73;57.54
68807;BME280;55800;54.272;18.558;2023-04-20T10:27:17;101848.16;;;14.79;57.27
68807;BME280;55800;54.272;18.558;2023-04-20T10:29:46;101842.84;;;14.78;57.37
68807;BME280;55800;54.272;18.558;2023-04-20T10:32:22;101844.47;;;14.82;57.78
68807;BME280;55800;54.272;18.558;2023-04-20T10:35:01;101847.00;;;14.87;57.07
68807;BME280;55800;54.272;18.558;2023-04-20T10:37:34;101840.66;;;14.88;56.78
68807;BME280;55800;54.272;18.558;2023-04-20T10:40:04;101833.47;;;14.88;56.18
68807;BME280;55800;54.272;18.558;2023-04-20T10:42:41;101836.91;;;14.92;56.27
68807;BME280;55800;54.272;18.558;2023-04-20T10:45:11;101835.91;;;14.94;57.27
68807;BME280;55800;54.272;18.558;2023-04-20T10:47:40;101841.19;;;14.97;56.02
68807;BME280;55800;54.272;18.558;2023-04-20T10:50:12;101834.94;;;14.95;56.87
68807;BME280;55800;54.272;18.558;2023-04-20T10:52:43;101835.72;;;14.99;56.31
68807;BME280;55800;54.272;18.558;2023-04-20T10:55:18;101828.25;;;15.05;55.67
68807;BME280;55800;54.272;18.558;2023-04-20T10:57:49;101832.31;;;15.15;55.87
68807;BME280;55800;54.272;18.558;2023-04-20T11:00:18;101826.81;;;15.18;55.51
68807;BME280;55800;54.272;18.558;2023-04-20T11:02:48;101831.00;;;15.25;56.22
68807;BME280;55800;54.272;18.558;2023-04-20T11:05:18;101823.53;;;15.32;55.96
68807;BME280;55800;54.272;18.558;2023-04-20T11:07:52;101831.31;;;15.39;56.48
68807;BME280;55800;54.272;18.558;2023-04-20T11:10:22;101828.31;;;15.47;57.25
68807;BME280;55800;54.272;18.558;2023-04-20T11:12:51;101827.16;;;15.52;56.62
68807;BME280;55800;54.272;18.558;2023-04-20T11:15:29;101831.34;;;15.59;55.32
68807;BME280;55800;54.272;18.558;2023-04-20T11:18:05;101825.63;;;15.67;56.15
68807;BME280;55800;54.272;18.558;2023-04-20T11:20:35;101821.25;;;15.65;54.30
68807;BME280;55800;54.272;18.558;2023-04-20T11:23:05;101820.97;;;15.71;55.77
68807;BME280;55800;54.272;18.558;2023-04-20T11:25:34;101820.97;;;15.71;54.20
68807;BME280;55800;54.272;18.558;2023-04-20T11:28:04;101822.59;;;15.75;55.97
68807;BME280;55800;54.272;18.558;2023-04-20T11:30:38;101821.50;;;15.79;55.58
68807;BME280;55800;54.272;18.558;2023-04-20T11:33:08;101818.88;;;15.77;54.57
68807;BME280;55800;54.272;18.558;2023-04-20T11:35:38;101829.53;;;15.80;54.56
68807;BME280;55800;54.272;18.558;2023-04-20T11:38:09;101815.91;;;15.83;54.72
68807;BME280;55800;54.272;18.558;2023-04-20T11:40:38;101819.34;;;15.87;54.65
68807;BME280;55800;54.272;18.558;2023-04-20T11:43:07;101812.88;;;15.91;53.18
68807;BME280;55800;54.272;18.558;2023-04-20T11:45:36;101821.91;;;15.90;53.70
68807;BME280;55800;54.272;18.558;2023-04-20T11:48:05;101820.16;;;15.89;52.88
68807;BME280;55800;54.272;18.558;2023-04-20T11:50:34;101807.34;;;15.94;53.58
68807;BME280;55800;54.272;18.558;2023-04-20T11:53:06;101804.56;;;15.95;53.10
68807;BME280;55800;54.272;18.558;2023-04-20T11:55:37;101811.78;;;15.95;52.75
68807;BME280;55800;54.272;18.558;2023-04-20T11:58:10;101810.13;;;15.92;53.46
68807;BME280;55800;54.272;18.558;2023-04-20T12:00:39;101815.44;;;15.94;52.99
68807;BME280;55800;54.272;18.558;2023-04-20T12:03:08;101818.25;;;15.91;52.90
68807;BME280;55800;54.272;18.558;2023-04-20T12:05:37;101815.72;;;15.88;53.22
68807;BME280;55800;54.272;18.558;2023-04-20T12:08:07;101814.72;;;15.90;52.82
68807;BME280;55800;54.272;18.558;2023-04-20T12:10:36;101812.13;;;15.87;53.67
68807;BME280;55800;54.272;18.558;2023-04-20T12:13:08;101820.94;;;15.91;54.72
68807;BME280;55800;54.272;18.558;2023-04-20T12:15:37;101811.72;;;15.96;52.33
68807;BME280;55800;54.272;18.558;2023-04-20T12:18:06;101824.13;;;16.00;53.65
68807;BME280;55800;54.272;18.558;2023-04-20T12:20:35;101814.22;;;16.01;53.08
68807;BME280;55800;54.272;18.558;2023-04-20T12:23:05;101824.13;;;16.00;52.48
68807;BME280;55800;54.272;18.558;2023-04-20T12:25:33;101816.75;;;16.04;53.62
68807;BME280;55800;54.272;18.558;2023-04-20T12:28:04;101819.47;;;16.04;54.29
68807;BME280;55800;54.272;18.558;2023-04-20T12:30:35;101816.75;;;16.04;52.67
68807;BME280;55800;54.272;18.558;2023-04-20T12:33:04;101806.78;;;16.06;53.09
68807;BME280;55800;54.272;18.558;2023-04-20T12:35:33;101817.28;;;16.12;52.28
68807;BME280;55800;54.272;18.558;2023-04-20T12:38:03;101815.38;;;16.14;52.99
68807;BME280;55800;54.272;18.558;2023-04-20T12:40:32;101811.75;;;16.15;52.80
68807;BME280;55800;54.272;18.558;2023-04-20T12:43:01;101799.88;;;16.19;52.40
68807;BME280;55800;54.272;18.558;2023-04-20T12:45:30;101806.06;;;16.21;52.78
68807;BME280;55800;54.272;18.558;2023-04-20T12:48:02;101798.78;;;16.23;53.10
68807;BME280;55800;54.272;18.558;2023-04-20T12:50:32;101794.94;;;16.28;53.04
68807;BME280;55800;54.272;18.558;2023-04-20T12:53:01;101808.44;;;16.28;52.13
68807;BME280;55800;54.272;18.558;2023-04-20T12:55:30;101804.56;;;16.34;52.11
68807;BME280;55800;54.272;18.558;2023-04-20T12:57:59;101806.03;;;16.41;52.76
68807;BME280;55800;54.272;18.558;2023-04-20T13:00:28;101796.09;;;16.41;51.91
68807;BME280;55800;54.272;18.558;2023-04-20T13:02:57;101801.44;;;16.43;53.31